createdAt,value
2019-02-10T00:02:29.843Z,19.63
2019-02-10T00:05:00.645Z,20.03
2019-02-10T00:07:35.396Z,21.27
2019-02-10T00:10:06.811Z,22.53
2019-02-10T00:12:53.259Z,17.67
2019-02-10T00:15:35.229Z,18.80
2019-02-10T00:18:17.125Z,19.00
2019-02-10T00:20:43.966Z,16.97
2019-02-10T00:23:12.935Z,18.40
2019-02-10T00:25:55.019Z,21.23
2019-02-10T00:28:20.729Z,18.83
2019-02-10T00:31:00.861Z,18.30
2019-02-10T00:33:37.732Z,20.00
2019-02-10T00:36:32.630Z,19.60
2019-02-10T00:38:57.962Z,18.37
2019-02-10T00:41:29.122Z,17.07
2019-02-10T00:44:00.182Z,18.37
2019-02-10T00:46:29.315Z,19.10
2019-02-10T00:52:26.948Z,19.03
2019-02-10T00:54:55.984Z,17.43
2019-02-10T00:57:24.994Z,20.30
2019-02-10T00:59:54.037Z,19.97
2019-02-10T01:02:45.506Z,19.83
2019-02-10T01:04:53.890Z,20.77
2019-02-10T01:07:22.875Z,17.93
2019-02-10T01:09:57.076Z,19.30
2019-02-10T01:12:26.054Z,18.23
2019-02-10T01:14:55.146Z,18.67
2019-02-10T01:17:24.158Z,18.33
2019-02-10T01:19:54.855Z,18.10
2019-02-10T01:22:29.232Z,18.50
2019-02-10T01:25:05.250Z,19.87
2019-02-10T01:27:38.508Z,19.33
2019-02-10T01:30:10.962Z,21.13
2019-02-10T01:32:44.297Z,20.30
2019-02-10T01:35:18.406Z,18.53
2019-02-10T01:37:51.866Z,20.23
2019-02-10T01:40:26.526Z,20.07
2019-02-10T01:43:10.501Z,17.20
2019-02-10T01:45:31.660Z,20.67
2019-02-10T01:48:08.151Z,19.57
2019-02-10T01:50:38.355Z,19.53
2019-02-10T01:53:07.225Z,20.43
2019-02-10T01:55:39.707Z,19.60
2019-02-10T01:58:12.313Z,20.17
2019-02-10T02:01:00.367Z,21.50
2019-02-10T02:03:31.735Z,20.00
2019-02-10T02:05:51.788Z,20.00
2019-02-10T02:08:44.011Z,19.77
2019-02-10T02:11:19.231Z,19.83
2019-02-10T02:13:59.669Z,22.03
2019-02-10T02:16:27.172Z,20.70
2019-02-10T02:18:56.471Z,19.33
2019-02-10T02:21:32.714Z,19.60
2019-02-10T02:24:01.680Z,19.70
2019-02-10T02:26:30.884Z,21.77
2019-02-10T02:29:00.113Z,22.70
2019-02-10T02:31:35.741Z,19.47
2019-02-10T02:34:10.648Z,21.90
2019-02-10T02:36:42.967Z,20.70
2019-02-10T02:39:13.008Z,18.97
2019-02-10T02:41:42.567Z,21.37
2019-02-10T02:44:11.743Z,19.73
2019-02-10T02:46:40.655Z,21.33
2019-02-10T02:49:09.664Z,22.17
2019-02-10T02:51:38.636Z,20.07
2019-02-10T02:54:11.720Z,19.73
2019-02-10T02:56:47.050Z,19.23
2019-02-10T02:59:25.521Z,18.43
2019-02-10T03:02:02.451Z,18.30
2019-02-10T03:04:33.595Z,19.77
2019-02-10T03:07:47.993Z,17.93
2019-02-10T03:10:08.516Z,18.67
2019-02-10T03:12:41.954Z,20.43
2019-02-10T03:15:36.538Z,18.50
2019-02-10T03:18:07.157Z,19.23
2019-02-10T03:21:03.092Z,18.90
2019-02-10T03:23:42.904Z,17.37
2019-02-10T03:26:09.765Z,17.97
2019-02-10T03:29:02.145Z,17.67
2019-02-10T03:31:33.510Z,17.47
2019-02-10T03:34:40.056Z,18.60
2019-02-10T03:37:37.857Z,20.27
2019-02-10T03:40:09.518Z,17.07
2019-02-10T03:42:44.538Z,17.23
2019-02-10T03:48:16.438Z,16.47
2019-02-10T03:50:53.096Z,18.07
2019-02-10T03:53:24.177Z,16.33
2019-02-10T03:55:59.812Z,14.33
2019-02-10T03:58:44.675Z,15.43
2019-02-10T04:01:36.748Z,15.30
2019-02-10T04:04:33.387Z,15.40
2019-02-10T04:07:13.359Z,14.40
2019-02-10T04:10:06.232Z,14.47
2019-02-10T04:12:39.787Z,14.97
2019-02-10T04:15:09.959Z,13.53
2019-02-10T04:17:46.503Z,13.67
2019-02-10T04:20:25.673Z,12.70
2019-02-10T04:23:03.712Z,12.90
2019-02-10T04:25:56.170Z,13.70
2019-02-10T04:28:48.189Z,14.13
2019-02-10T04:31:19.253Z,13.27
2019-02-10T04:33:58.177Z,12.10
2019-02-10T04:36:46.195Z,14.17
2019-02-10T04:39:23.040Z,12.67
2019-02-10T04:41:54.543Z,13.50
2019-02-10T04:47:35.885Z,12.37
2019-02-10T04:50:20.496Z,11.50
2019-02-10T04:53:04.779Z,11.60
2019-02-10T04:55:46.783Z,12.43
2019-02-10T04:58:32.107Z,10.93
2019-02-10T05:01:10.104Z,12.47
2019-02-10T05:04:19.077Z,10.97
2019-02-10T05:06:51.033Z,10.40
2019-02-10T05:10:03.375Z,10.47
2019-02-10T05:12:05.556Z,10.40
2019-02-10T05:14:47.532Z,12.00
2019-02-10T05:17:24.294Z,10.47
2019-02-10T05:19:53.486Z,12.57
2019-02-10T05:22:39.348Z,8.67
2019-02-10T05:25:12.037Z,9.33
2019-02-10T05:27:44.896Z,9.40
2019-02-10T05:30:15.294Z,9.20
2019-02-10T05:32:47.663Z,9.60
2019-02-10T05:35:22.122Z,7.93
2019-02-10T05:38:07.990Z,8.53
2019-02-10T05:40:41.380Z,8.90
2019-02-10T05:43:14.701Z,8.30
2019-02-10T05:45:48.886Z,8.77
2019-02-10T05:48:22.343Z,8.33
2019-02-10T05:51:10.580Z,6.97
2019-02-10T05:53:46.263Z,8.63
2019-02-10T05:56:50.301Z,8.90
2019-02-10T05:59:29.018Z,8.97
2019-02-10T06:02:03.369Z,7.57
2019-02-10T06:04:37.130Z,6.63
2019-02-10T06:07:09.790Z,7.87
2019-02-10T06:09:38.824Z,7.70
2019-02-10T06:12:11.826Z,7.73
2019-02-10T06:14:40.889Z,7.77
2019-02-10T06:17:13.053Z,6.73
2019-02-10T06:19:42.332Z,6.87
2019-02-10T06:22:13.939Z,7.57
2019-02-10T06:24:46.612Z,6.73
2019-02-10T06:30:07.479Z,7.10
2019-02-10T06:32:39.920Z,7.13
2019-02-10T06:35:14.155Z,6.43
2019-02-10T06:37:43.097Z,7.53
2019-02-10T06:40:15.384Z,6.63
2019-02-10T06:42:44.476Z,7.03
2019-02-10T06:45:13.904Z,6.77
2019-02-10T06:47:46.157Z,5.80
2019-02-10T06:50:15.808Z,6.50
2019-02-10T06:52:46.006Z,5.77
2019-02-10T06:55:15.433Z,5.07
2019-02-10T06:57:52.547Z,4.73
2019-02-10T07:00:42.223Z,5.37
2019-02-10T07:04:00.442Z,5.43
2019-02-10T07:06:31.598Z,6.80
2019-02-10T07:09:00.723Z,5.50
2019-02-10T07:11:31.278Z,5.47
2019-02-10T07:14:16.505Z,5.30
2019-02-10T07:16:55.529Z,6.10
2019-02-10T07:20:00.267Z,7.70
2019-02-10T07:23:17.587Z,11.73
2019-02-10T07:25:55.617Z,10.03
2019-02-10T07:29:12.531Z,9.93
2019-02-10T07:31:56.885Z,12.47
2019-02-10T07:34:55.535Z,8.67
2019-02-10T07:38:13.769Z,10.77
2019-02-10T07:41:23.013Z,10.63
2019-02-10T07:44:44.315Z,8.10
2019-02-10T07:48:06.540Z,9.83
2019-02-10T07:51:22.438Z,8.40
2019-02-10T07:54:32.823Z,8.70
2019-02-10T07:57:52.170Z,10.87
2019-02-10T08:00:53.129Z,9.73
2019-02-10T08:03:41.451Z,10.57
2019-02-10T08:06:43.037Z,8.93
2019-02-10T08:10:22.958Z,10.63
2019-02-10T08:13:06.380Z,7.70
2019-02-10T08:16:06.208Z,9.10
2019-02-10T08:19:02.131Z,9.10
2019-02-10T08:21:47.569Z,8.70
2019-02-10T08:25:13.065Z,8.83
2019-02-10T08:31:30.531Z,8.33
2019-02-10T08:34:18.767Z,8.47
2019-02-10T08:37:43.702Z,6.80
2019-02-10T08:40:44.701Z,7.50
2019-02-10T08:43:55.319Z,8.37
2019-02-10T08:46:56.717Z,7.30
2019-02-10T08:50:16.652Z,7.40
2019-02-10T08:53:03.089Z,6.20
2019-02-10T08:55:32.484Z,6.53
2019-02-10T08:58:02.924Z,6.93
2019-02-10T09:00:32.194Z,8.70
2019-02-10T09:03:01.006Z,8.13
2019-02-10T09:05:30.839Z,10.37
2019-02-10T09:07:59.679Z,9.73
2019-02-10T09:10:48.343Z,12.47
2019-02-10T09:13:21.301Z,10.70
2019-02-10T09:15:47.860Z,10.33
2019-02-10T09:18:25.923Z,10.33
2019-02-10T09:21:02.095Z,11.77
2019-02-10T09:23:47.582Z,11.17
2019-02-10T09:26:43.614Z,11.87
2019-02-10T09:29:12.492Z,11.23
2019-02-10T09:31:41.361Z,12.50
2019-02-10T09:34:17.560Z,10.87
2019-02-10T09:37:15.913Z,13.03
2019-02-10T09:39:46.635Z,11.37
2019-02-10T09:42:26.408Z,11.00
2019-02-10T09:44:57.592Z,12.93
2019-02-10T09:47:28.235Z,12.87
2019-02-10T09:49:59.587Z,13.73
2019-02-10T09:52:32.437Z,13.23
2019-02-10T09:55:08.406Z,14.17
2019-02-10T09:57:37.391Z,13.47
2019-02-10T10:00:09.099Z,14.43
2019-02-10T10:02:38.145Z,14.07
2019-02-10T10:05:30.677Z,14.97
2019-02-10T10:07:59.311Z,17.47
2019-02-10T10:10:35.936Z,14.87
2019-02-10T10:13:08.710Z,14.20
2019-02-10T10:15:42.463Z,14.93
2019-02-10T10:18:11.530Z,14.20
2019-02-10T10:20:41.383Z,13.97
2019-02-10T10:23:11.390Z,17.87
2019-02-10T10:25:49.853Z,16.07
2019-02-10T10:28:20.022Z,17.00
2019-02-10T10:30:49.715Z,16.00
2019-02-10T10:33:18.564Z,20.00
2019-02-10T10:36:02.988Z,19.80
2019-02-10T10:38:31.851Z,18.37
2019-02-10T10:41:00.853Z,13.90
2019-02-10T10:46:30.827Z,11.90
2019-02-10T10:49:20.681Z,11.33
2019-02-10T10:51:49.633Z,11.27
2019-02-10T10:54:20.686Z,7.13
2019-02-10T10:56:58.650Z,16.97
2019-02-10T10:59:48.055Z,19.70
2019-02-10T11:02:18.753Z,13.80
2019-02-10T11:05:04.027Z,14.23
2019-02-10T11:07:46.174Z,11.70
2019-02-10T11:10:24.438Z,10.83
2019-02-10T11:12:55.261Z,11.57
2019-02-10T11:15:24.584Z,10.23
2019-02-10T11:17:53.692Z,11.07
2019-02-10T11:20:36.710Z,10.97
2019-02-10T11:23:11.858Z,9.70
2019-02-10T11:25:45.266Z,27.40
2019-02-10T11:28:14.727Z,8.47
2019-02-10T11:30:43.546Z,9.93
2019-02-10T11:33:13.328Z,11.07
2019-02-10T11:35:46.955Z,10.87
2019-02-10T11:38:17.210Z,14.87
2019-02-10T11:40:57.181Z,7.93
2019-02-10T11:43:27.263Z,11.17
2019-02-10T11:46:05.339Z,9.70
2019-02-10T11:48:36.481Z,8.77
2019-02-10T11:51:05.635Z,14.67
2019-02-10T11:53:38.829Z,7.90
2019-02-10T11:56:07.821Z,9.30
2019-02-10T12:01:15.127Z,17.43
2019-02-10T12:03:50.036Z,13.30
2019-02-10T12:06:39.640Z,10.07
2019-02-10T12:09:08.470Z,10.10
2019-02-10T12:14:31.565Z,10.35
2019-02-10T12:17:00.368Z,17.80
2019-02-10T12:19:36.010Z,5.33
2019-02-10T12:22:49.823Z,8.55
2019-02-10T12:24:49.660Z,7.10
2019-02-10T12:27:20.335Z,42.08
2019-02-10T12:29:53.621Z,13.77
2019-02-10T12:32:44.107Z,8.18
2019-02-10T12:35:13.479Z,7.78
2019-02-10T12:37:44.154Z,8.35
2019-02-10T12:40:16.724Z,6.75
2019-02-10T12:42:46.128Z,5.55
2019-02-10T12:45:20.203Z,5.62
2019-02-10T12:47:50.134Z,15.67
2019-02-10T12:50:19.233Z,21.07
2019-02-10T12:52:49.832Z,22.50
2019-02-10T12:55:19.184Z,37.55
2019-02-10T12:57:48.203Z,34.50
2019-02-10T13:00:18.410Z,65.08
2019-02-10T13:02:51.635Z,37.28
2019-02-10T13:05:21.343Z,28.10
2019-02-10T13:07:55.447Z,22.93
2019-02-10T13:13:20.257Z,21.70
2019-02-10T13:15:49.174Z,18.98
2019-02-10T13:18:20.085Z,23.70
2019-02-10T13:20:51.882Z,18.03
2019-02-10T13:23:30.033Z,19.05
2019-02-10T13:26:19.196Z,16.87
2019-02-10T13:28:51.190Z,14.70
2019-02-10T13:31:22.643Z,14.33
2019-02-10T13:33:53.959Z,11.07
2019-02-10T13:36:33.130Z,10.57
2019-02-10T13:39:02.229Z,10.10
2019-02-10T13:41:45.978Z,9.00
2019-02-10T13:44:25.420Z,8.37
2019-02-10T13:46:54.611Z,8.60
2019-02-10T13:49:24.936Z,8.60
2019-02-10T13:51:53.960Z,7.30
2019-02-10T13:54:23.266Z,6.43
2019-02-10T13:59:59.096Z,7.80
2019-02-10T14:02:28.120Z,8.60
2019-02-10T14:04:57.007Z,7.20
2019-02-10T14:13:03.192Z,4.73
2019-02-10T14:15:37.175Z,9.77
2019-02-10T14:18:06.091Z,5.67
2019-02-10T14:20:35.202Z,4.63
2019-02-10T14:23:05.020Z,8.03
2019-02-10T14:25:34.320Z,5.27
2019-02-10T14:28:04.745Z,5.87
2019-02-10T14:30:33.983Z,5.43
2019-02-10T14:33:07.063Z,6.07
2019-02-10T14:38:36.277Z,5.03
2019-02-10T14:41:08.624Z,4.13
2019-02-10T14:43:40.654Z,4.50
2019-02-10T14:46:11.679Z,4.43
2019-02-10T14:48:42.712Z,3.90
2019-02-10T14:51:11.892Z,4.00
2019-02-10T14:53:40.835Z,3.40
2019-02-10T14:56:27.971Z,3.53
2019-02-10T14:58:56.837Z,4.17
2019-02-10T15:01:28.307Z,3.63
2019-02-10T15:03:57.179Z,3.87
2019-02-10T15:06:30.600Z,4.17
2019-02-10T15:09:09.481Z,3.40
2019-02-10T15:11:38.579Z,3.73
2019-02-10T15:14:10.115Z,3.57
2019-02-10T15:19:24.857Z,3.73
2019-02-10T15:21:53.774Z,3.40
2019-02-10T15:24:23.056Z,3.00
2019-02-10T15:27:14.207Z,3.40
2019-02-10T15:29:43.707Z,4.47
2019-02-10T15:32:22.353Z,2.97
2019-02-10T15:34:52.812Z,5.03
2019-02-10T15:37:26.077Z,3.37
2019-02-10T15:39:56.749Z,3.50
2019-02-10T15:42:26.026Z,3.83
2019-02-10T15:45:09.971Z,2.87
2019-02-10T15:47:56.991Z,2.87
2019-02-10T15:50:33.957Z,2.80
2019-02-10T15:53:02.927Z,3.20
2019-02-10T15:58:31.158Z,2.70
2019-02-10T16:04:26.479Z,2.93
2019-02-10T16:06:57.364Z,3.27
2019-02-10T16:09:31.118Z,3.90
2019-02-10T16:12:04.393Z,3.37
2019-02-10T16:14:36.639Z,3.20
2019-02-10T16:17:08.630Z,4.97
2019-02-10T16:19:42.136Z,2.37
2019-02-10T16:24:47.261Z,2.13
2019-02-10T16:27:18.028Z,2.47
2019-02-10T16:29:47.177Z,3.67
2019-02-10T16:32:19.332Z,2.90
2019-02-10T16:34:51.669Z,2.20
2019-02-10T16:37:22.401Z,2.03
2019-02-10T16:39:51.548Z,2.33
2019-02-10T16:42:20.698Z,1.97
2019-02-10T16:47:43.268Z,3.67
2019-02-10T16:50:15.291Z,3.00
2019-02-10T16:52:44.417Z,2.47
2019-02-10T16:55:25.426Z,2.03
2019-02-10T16:57:54.682Z,3.53
2019-02-10T17:00:23.669Z,1.83
2019-02-10T17:03:05.442Z,2.23
2019-02-10T17:05:43.893Z,2.70
2019-02-10T17:08:27.418Z,2.07
2019-02-10T17:13:43.373Z,1.93
2019-02-10T17:16:12.199Z,2.07
2019-02-10T17:18:44.261Z,1.97
2019-02-10T17:21:20.294Z,2.30
2019-02-10T17:23:53.225Z,2.00
2019-02-10T17:26:22.136Z,2.63
2019-02-10T17:28:53.652Z,3.10
2019-02-10T17:31:25.232Z,3.20
2019-02-10T17:33:54.212Z,3.33
2019-02-10T17:36:23.203Z,3.20
2019-02-10T17:38:53.224Z,4.93
2019-02-10T17:41:52.736Z,3.60
2019-02-10T17:44:26.392Z,4.40
2019-02-10T17:46:55.219Z,4.20
2019-02-10T17:49:25.027Z,5.73
2019-02-10T17:51:53.980Z,4.20
2019-02-10T17:54:23.083Z,4.80
2019-02-10T17:56:53.194Z,3.73
2019-02-10T17:59:22.818Z,4.03
2019-02-10T18:01:51.795Z,4.87
2019-02-10T18:04:37.450Z,5.30
2019-02-10T18:07:08.236Z,5.90
2019-02-10T18:09:38.406Z,5.10
2019-02-10T18:12:23.812Z,6.43
2019-02-10T18:15:38.462Z,5.80
2019-02-10T18:18:26.715Z,6.97
2019-02-10T18:21:15.764Z,7.33
2019-02-10T18:26:47.988Z,6.73
2019-02-10T18:29:36.670Z,9.33
2019-02-10T18:32:30.848Z,7.83
2019-02-10T18:35:17.989Z,7.90
2019-02-10T18:37:58.427Z,7.83
2019-02-10T18:40:39.250Z,8.47
2019-02-10T18:43:50.192Z,8.97
2019-02-10T18:46:50.023Z,9.10
2019-02-10T18:49:43.989Z,9.80
2019-02-10T18:52:50.095Z,10.70
2019-02-10T18:55:44.017Z,8.17
2019-02-10T18:58:18.533Z,10.20
2019-02-10T19:00:58.768Z,9.47
2019-02-10T19:04:09.420Z,11.73
2019-02-10T19:07:03.066Z,9.90
2019-02-10T19:09:51.027Z,9.93
2019-02-10T19:12:45.319Z,12.17
2019-02-10T19:22:07.688Z,12.30
2019-02-10T19:24:59.650Z,12.60
2019-02-10T19:27:47.835Z,13.83
2019-02-10T19:30:44.886Z,13.93
2019-02-10T19:33:31.577Z,13.93
2019-02-10T19:36:15.919Z,12.93
2019-02-10T19:39:03.307Z,13.47
2019-02-10T19:41:55.720Z,14.40
2019-02-10T19:44:29.823Z,16.40
2019-02-10T19:47:24.943Z,14.17
2019-02-10T19:50:09.192Z,14.70
2019-02-10T19:53:06.518Z,15.77
2019-02-10T19:56:14.528Z,14.27
2019-02-10T19:59:09.971Z,18.17
2019-02-10T20:01:57.062Z,17.47
2019-02-10T20:04:48.227Z,24.57
2019-02-10T20:07:47.349Z,14.87
2019-02-10T20:10:23.250Z,16.87
2019-02-10T20:13:20.586Z,16.60
2019-02-10T20:16:11.235Z,18.60
2019-02-10T20:18:47.627Z,19.83
2019-02-10T20:24:26.296Z,24.07
2019-02-10T20:27:06.617Z,32.60
2019-02-10T20:30:04.805Z,30.97
2019-02-10T20:32:57.601Z,35.63
2019-02-10T20:39:22.205Z,36.27
2019-02-10T20:41:48.623Z,39.57
2019-02-10T20:47:22.810Z,41.37
2019-02-10T20:50:25.536Z,38.97
2019-02-10T20:53:24.307Z,40.90
2019-02-10T20:56:44.172Z,40.33
2019-02-10T20:59:42.435Z,43.60
2019-02-10T21:02:37.723Z,38.57
2019-02-10T21:05:36.287Z,37.63
2019-02-10T21:08:48.695Z,38.17
2019-02-10T21:11:49.574Z,35.23
2019-02-10T21:14:45.973Z,35.37
2019-02-10T21:17:38.143Z,38.63
2019-02-10T21:21:03.344Z,42.70
2019-02-10T21:23:48.081Z,35.17
2019-02-10T21:26:52.338Z,36.17
2019-02-10T21:29:42.904Z,35.47
2019-02-10T21:32:25.010Z,32.50
2019-02-10T21:35:05.138Z,38.33
2019-02-10T21:37:58.126Z,39.40
2019-02-10T21:40:40.305Z,33.83
2019-02-10T21:43:20.958Z,32.53
2019-02-10T21:46:09.515Z,34.23
2019-02-10T21:48:58.576Z,36.30
2019-02-10T21:51:29.606Z,34.10
2019-02-10T21:53:58.824Z,33.63
2019-02-10T21:56:30.154Z,31.87
2019-02-10T21:58:59.627Z,32.63
2019-02-10T22:01:33.359Z,35.00
2019-02-10T22:04:11.990Z,36.20
2019-02-10T22:07:01.875Z,31.87
2019-02-10T22:09:32.809Z,32.30
2019-02-10T22:12:06.556Z,28.87
2019-02-10T22:17:35.503Z,36.40
2019-02-10T22:20:09.393Z,29.80
2019-02-10T22:22:39.627Z,30.20
2019-02-10T22:25:27.883Z,29.63
2019-02-10T22:28:03.995Z,31.87
2019-02-10T22:30:33.175Z,31.17
2019-02-10T22:33:02.432Z,30.13
2019-02-10T22:35:33.484Z,30.70
2019-02-10T22:38:11.383Z,31.40
2019-02-10T22:40:45.901Z,30.53
2019-02-10T22:43:14.817Z,28.93
2019-02-10T22:45:48.069Z,28.60
2019-02-10T22:48:17.071Z,33.73
2019-02-10T22:50:48.100Z,28.67
2019-02-10T22:53:17.795Z,31.27
2019-02-10T22:55:46.705Z,32.00
2019-02-10T22:58:23.493Z,32.20
2019-02-10T23:01:08.527Z,29.73
2019-02-10T23:03:40.032Z,28.67
2019-02-10T23:06:14.315Z,29.00
2019-02-10T23:09:08.251Z,29.90
2019-02-10T23:11:42.816Z,31.20
2019-02-10T23:14:19.043Z,29.77
2019-02-10T23:16:48.850Z,28.87
2019-02-10T23:19:19.848Z,30.03
2019-02-10T23:21:48.934Z,29.70
2019-02-10T23:27:14.040Z,30.27
2019-02-10T23:29:46.918Z,29.17
2019-02-10T23:32:15.971Z,28.93
2019-02-10T23:34:45.807Z,32.17
2019-02-10T23:37:16.968Z,28.60
2019-02-10T23:40:29.563Z,30.70
2019-02-10T23:43:02.230Z,30.33
2019-02-10T23:45:35.998Z,29.03
2019-02-10T23:48:32.437Z,28.07
2019-02-10T23:51:04.116Z,30.73
2019-02-10T23:53:35.026Z,29.97
2019-02-10T23:56:04.218Z,31.17
2019-02-10T23:58:37.166Z,32.50
